Time;durP1;ratioP1;P1;durP2;ratioP2;P2;SDS_P1;SDS_P2;PMS_P1;PMS_P2;Temp;Humidity;BMP_temperature;BMP_pressure;BME280_temperature;BME280_humidity;BME280_pressure;Samples;Min_cycle;Max_cycle;Signal;HPM_P1;HPM_P2
2021/07/25 00:00:02;;;;;;;6.88;4.82;;;22.00;88.10;;;19.64;100.00;99880.25;3486461;40;100104;-83
2021/07/25 00:02:34;;;;;;;7.32;4.72;;;21.50;88.50;;;19.59;100.00;99881.97;3493715;40;100455;-82
2021/07/25 00:05:02;;;;;;;5.72;4.53;;;21.30;89.00;;;19.59;100.00;99876.56;3495669;40;100898;-84
2021/07/25 00:07:29;;;;;;;6.53;4.93;;;21.50;90.00;;;19.54;100.00;99888.06;3490754;40;100529;-82
2021/07/25 00:09:56;;;;;;;8.57;5.28;;;21.90;90.40;;;19.52;100.00;99889.38;3495963;40;100147;-84
2021/07/25 00:12:24;;;;;;;11.75;5.03;;;21.60;90.70;;;19.47;100.00;99894.63;3488452;40;100094;-84
2021/07/25 00:14:52;;;;;;;5.75;4.38;;;21.40;90.90;;;19.44;100.00;99900.47;3487624;40;101413;-82
2021/07/25 00:17:19;;;;;;;5.90;5.25;;;21.20;91.20;;;19.36;100.00;99907.03;3486062;40;100840;-84
2021/07/25 00:19:46;;;;;;;9.93;4.95;;;21.30;91.60;;;19.42;100.00;99913.44;3486352;40;100451;-84
2021/07/25 00:22:14;;;;;;;7.35;4.95;;;21.10;92.00;;;19.37;100.00;99920.38;3483341;40;103036;-83
2021/07/25 00:24:49;;;;;;;6.07;4.68;;;21.30;92.30;;;19.32;100.00;99922.09;3482929;40;103582;-85
2021/07/25 00:27:16;;;;;;;6.88;5.47;;;21.00;92.70;;;19.33;100.00;99921.88;3484124;40;100245;-83
2021/07/25 00:29:44;;;;;;;7.38;4.05;;;21.00;93.10;;;19.31;100.00;99921.28;3494888;40;100527;-84
2021/07/25 00:32:11;;;;;;;8.25;5.05;;;20.90;93.30;;;19.28;100.00;99920.91;3493174;40;100517;-83
2021/07/25 00:34:38;;;;;;;7.18;5.47;;;21.20;94.10;;;19.27;100.00;99925.50;3495036;40;101068;-82
2021/07/25 00:37:05;;;;;;;7.00;4.88;;;20.80;94.20;;;19.29;100.00;99912.53;3502567;40;102853;-83
2021/07/25 00:39:32;;;;;;;9.98;5.95;;;21.30;94.60;;;19.24;100.00;99917.81;3500328;40;100146;-84
2021/07/25 00:41:59;;;;;;;7.93;5.18;;;20.80;94.60;;;19.30;100.00;99925.03;3494659;40;100848;-82
2021/07/25 00:44:26;;;;;;;6.00;4.35;;;20.80;94.80;;;19.30;100.00;99924.19;3497901;40;101331;-83
2021/07/25 00:46:59;;;;;;;8.25;5.10;;;20.70;94.90;;;19.31;100.00;99929.41;3500063;40;101565;-84
2021/07/25 00:49:28;;;;;;;8.82;5.40;;;20.70;95.10;;;19.27;100.00;99928.22;3504365;40;99986;-82
2021/07/25 00:51:56;;;;;;;7.47;5.47;;;21.30;95.30;;;19.29;100.00;99930.69;3495756;40;101949;-82
2021/07/25 00:54:23;;;;;;;6.32;4.63;;;21.20;95.30;;;19.30;100.00;99927.75;3496490;40;101207;-85
2021/07/25 00:56:51;;;;;;;8.45;5.38;;;20.70;95.60;;;19.31;100.00;99921.28;3488929;40;100174;-83
2021/07/25 00:59:18;;;;;;;7.53;5.05;;;20.70;95.80;;;19.32;100.00;99916.69;3489459;40;100213;-83
2021/07/25 01:01:46;;;;;;;7.13;5.10;;;21.70;96.30;;;19.24;100.00;99911.53;3491967;40;100986;-82
2021/07/25 01:04:33;;;;;;;6.55;5.40;;;21.70;96.20;;;19.14;100.00;99909.34;3487008;40;101315;-82
2021/07/25 01:07:14;;;;;;;8.18;4.70;;;20.70;96.00;;;19.16;100.00;99922.69;3492714;40;100765;-83
2021/07/25 01:09:52;;;;;;;7.40;5.07;;;21.50;96.30;;;19.13;100.00;99915.81;3492055;40;100188;-83
2021/07/25 01:12:25;;;;;;;5.65;4.50;;;20.60;96.10;;;19.12;100.00;99922.31;3485607;40;102585;-84
2021/07/25 01:14:56;;;;;;;8.63;5.32;;;20.60;96.10;;;19.09;100.00;99925.44;3496826;40;101407;-84
2021/07/25 01:17:36;;;;;;;6.53;4.90;;;20.60;96.20;;;19.12;100.00;99927.72;3489992;40;100789;-83
2021/07/25 01:20:08;;;;;;;5.95;3.95;;;21.10;96.60;;;19.07;100.00;99935.69;3498673;40;100034;-85
2021/07/25 01:22:39;;;;;;;7.28;5.10;;;20.50;96.40;;;19.04;100.00;99936.13;3498313;40;101043;-82
2021/07/25 01:25:10;;;;;;;6.82;5.07;;;20.50;96.50;;;19.03;100.00;99937.19;3496559;40;103051;-83
2021/07/25 01:27:45;;;;;;;11.15;4.85;;;20.50;96.60;;;19.00;100.00;99937.63;3497195;40;101316;-85
2021/07/25 01:30:17;;;;;;;10.13;5.38;;;20.50;96.70;;;18.97;100.00;99941.59;3503063;40;100081;-85
2021/07/25 01:32:45;;;;;;;7.13;4.85;;;20.40;96.80;;;18.97;100.00;99938.06;3503240;40;101323;-82
2021/07/25 01:35:15;;;;;;;9.43;5.80;;;20.40;96.80;;;19.05;100.00;99929.66;3510293;40;101385;-84
2021/07/25 01:37:43;;;;;;;6.97;5.07;;;20.40;97.00;;;18.95;100.00;99923.91;3502767;40;101089;-84
2021/07/25 01:40:16;;;;;;;9.00;5.13;;;20.40;97.10;;;18.97;100.00;99928.06;3492917;40;100268;-84
2021/07/25 01:42:44;;;;;;;6.07;4.55;;;20.40;97.70;;;18.95;100.00;99918.47;3488884;40;101017;-82
2021/07/25 01:45:13;;;;;;;6.65;5.25;;;20.40;97.40;;;19.00;100.00;99916.78;3486528;40;100860;-84
2021/07/25 01:47:40;;;;;;;5.63;4.85;;;20.30;97.50;;;18.91;100.00;99920.00;3486046;40;102374;-85
2021/07/25 01:50:10;;;;;;;7.65;4.93;;;20.30;97.60;;;18.97;100.00;99913.66;3485323;40;99984;-83
2021/07/25 01:52:38;;;;;;;6.15;5.07;;;20.30;97.90;;;18.92;100.00;99905.34;3494892;40;101290;-83
2021/07/25 01:55:07;;;;;;;10.68;4.95;;;20.70;98.00;;;18.91;100.00;99906.44;3490368;40;101229;-81
2021/07/25 01:57:34;;;;;;;9.30;5.25;;;20.30;98.00;;;18.94;100.00;99914.94;3486196;40;100477;-85
2021/07/25 02:00:02;;;;;;;10.23;5.43;;;20.40;98.10;;;18.91;100.00;99907.25;3489432;40;99967;-85
2021/07/25 02:02:29;;;;;;;7.22;4.13;;;20.80;98.30;;;18.91;100.00;99903.72;3486017;40;100968;-82
2021/07/25 02:04:56;;;;;;;10.63;6.60;;;21.10;98.50;;;18.87;100.00;99907.91;3488288;40;103506;-82
2021/07/25 02:07:23;;;;;;;8.25;5.65;;;19.30;97.90;;;18.91;100.00;99904.56;3489010;40;102677;-84
2021/07/25 02:09:51;;;;;;;8.40;5.93;;;20.30;98.20;;;18.89;100.00;99905.81;3497121;40;100362;-83
2021/07/25 02:12:18;;;;;;;6.18;5.03;;;20.20;98.40;;;18.86;100.00;99904.38;3493889;40;100879;-83
2021/07/25 02:14:45;;;;;;;7.15;5.20;;;20.00;98.20;;;18.83;100.00;99906.69;3501022;40;100431;-85
2021/07/25 02:17:12;;;;;;;7.03;4.90;;;20.10;98.20;;;18.83;100.00;99912.13;3492202;40;102443;-84
2021/07/25 02:19:40;;;;;;;11.63;4.88;;;21.10;98.70;;;18.80;100.00;99913.38;3491108;40;100026;-83
2021/07/25 02:22:07;;;;;;;6.15;5.25;;;20.10;98.40;;;18.72;100.00;99919.06;3501099;40;101226;-84
2021/07/25 02:24:35;;;;;;;6.72;5.05;;;20.10;98.30;;;18.73;100.00;99928.03;3501129;40;103224;-85
2021/07/25 02:27:04;;;;;;;10.02;5.00;;;20.60;98.60;;;18.68;100.00;99928.69;3503938;40;100564;-81
2021/07/25 02:29:31;;;;;;;9.00;5.25;;;20.00;98.40;;;18.68;100.00;99934.09;3499809;40;100162;-82
2021/07/25 02:31:58;;;;;;;9.40;5.63;;;20.00;98.60;;;18.67;100.00;99929.72;3504450;40;100897;-85
2021/07/25 02:34:25;;;;;;;9.45;5.95;;;20.00;98.60;;;18.62;100.00;99938.53;3504302;40;100936;-83
2021/07/25 02:36:53;;;;;;;7.95;5.70;;;20.00;98.60;;;18.58;100.00;99942.72;3501117;40;100871;-85
2021/07/25 02:39:20;;;;;;;8.52;5.45;;;20.00;98.70;;;18.58;100.00;99940.00;3500921;40;100975;-83
2021/07/25 02:41:47;;;;;;;8.55;5.22;;;20.00;98.70;;;18.59;100.00;99935.44;3506882;40;101102;-85
2021/07/25 02:44:15;;;;;;;7.75;5.40;;;20.20;98.80;;;18.60;100.00;99935.22;3501049;40;102905;-84
2021/07/25 02:46:42;;;;;;;6.00;4.50;;;20.90;99.00;;;18.65;100.00;99935.41;3501033;40;100494;-82
2021/07/25 02:49:09;;;;;;;10.57;5.03;;;20.20;98.90;;;18.63;100.00;99926.66;3502562;40;100118;-83
2021/07/25 02:51:36;;;;;;;8.90;4.93;;;20.00;98.80;;;18.67;100.00;99921.59;3495911;40;101905;-85
2021/07/25 02:54:04;;;;;;;6.28;4.50;;;20.00;98.80;;;18.65;100.00;99923.72;3507349;40;102980;-84
2021/07/25 02:56:31;;;;;;;6.53;4.13;;;20.10;98.80;;;18.64;100.00;99922.91;3501996;40;101076;-85
2021/07/25 02:58:58;;;;;;;8.30;5.30;;;20.10;98.80;;;18.66;100.00;99919.97;3492021;40;100226;-83
2021/07/25 03:01:26;;;;;;;8.88;5.53;;;20.10;98.70;;;18.71;100.00;99922.00;3502436;40;103101;-82
2021/07/25 03:03:53;;;;;;;7.38;4.60;;;20.20;98.70;;;18.71;100.00;99928.25;3495951;40;102916;-82
2021/07/25 03:06:20;;;;;;;10.80;4.90;;;20.10;98.50;;;18.71;100.00;99924.72;3495451;40;102359;-83
2021/07/25 03:08:47;;;;;;;8.20;4.88;;;20.90;98.70;;;18.69;100.00;99930.34;3500975;40;100008;-84
2021/07/25 03:11:14;;;;;;;6.82;5.10;;;21.10;98.70;;;18.73;100.00;99925.31;3500370;40;100867;-85
2021/07/25 03:13:42;;;;;;;7.18;4.55;;;21.10;98.50;;;18.66;100.00;99933.53;3495860;40;101894;-82
2021/07/25 03:16:10;;;;;;;6.90;4.53;;;20.10;98.60;;;18.62;100.00;99938.53;3501223;40;100600;-84
2021/07/25 03:18:38;;;;;;;15.20;5.38;;;20.60;98.40;;;18.58;100.00;99936.47;3495223;40;100001;-84
2021/07/25 03:21:06;;;;;;;8.75;4.93;;;21.00;98.50;;;18.53;100.00;99942.53;3502760;40;102800;-83
2021/07/25 03:23:34;;;;;;;8.02;5.07;;;20.10;98.30;;;18.62;100.00;99956.69;3500079;40;102962;-82
2021/07/25 03:26:01;;;;;;;8.60;5.07;;;20.10;98.50;;;18.40;100.00;99958.03;3487100;40;100596;-84
2021/07/25 03:28:28;;;;;;;5.47;4.45;;;20.00;98.60;;;18.37;100.00;99972.84;3492347;40;100105;-84
2021/07/25 03:30:55;;;;;;;8.77;5.80;;;20.00;98.60;;;18.36;100.00;99982.00;3495584;40;100760;-86
2021/07/25 03:33:22;;;;;;;6.35;4.97;;;19.90;98.70;;;18.31;100.00;99989.94;3489248;40;103010;-83
2021/07/25 03:35:51;;;;;;;7.40;4.40;;;19.90;98.70;;;18.21;100.00;100006.66;3494113;40;100411;-84
2021/07/25 03:38:18;;;;;;;8.07;5.53;;;19.90;98.80;;;18.13;100.00;100030.44;3531388;23;100056;-85
2021/07/25 03:40:46;;;;;;;5.93;5.03;;;19.90;99.00;;;18.09;100.00;100035.44;3490782;40;101238;-85
2021/07/25 03:43:15;;;;;;;10.55;5.63;;;20.70;99.40;;;17.99;100.00;100043.19;3489038;40;102335;-84
2021/07/25 03:45:44;;;;;;;9.93;5.25;;;19.80;99.20;;;18.05;100.00;100055.03;3496455;40;102341;-83
2021/07/25 03:48:12;;;;;;;8.40;5.68;;;19.70;99.20;;;18.07;100.00;100053.75;3490396;40;100041;-84
2021/07/25 03:50:42;;;;;;;5.82;4.60;;;19.80;99.20;;;18.15;100.00;100052.72;3493395;40;100411;-82
2021/07/25 03:53:11;;;;;;;7.45;4.80;;;19.80;99.20;;;18.17;100.00;100045.22;3485285;40;103128;-83
2021/07/25 03:55:39;;;;;;;6.85;5.05;;;19.80;99.10;;;18.19;100.00;100035.81;3496716;40;100553;-85
2021/07/25 03:58:06;;;;;;;6.95;5.32;;;19.80;99.00;;;18.22;100.00;100043.53;3493882;40;100934;-83
2021/07/25 04:00:33;;;;;;;7.45;5.28;;;19.80;99.10;;;18.17;100.00;100037.09;3489771;40;102928;-85
2021/07/25 04:03:00;;;;;;;6.57;4.32;;;19.80;99.30;;;18.16;100.00;100051.69;3497289;40;103180;-84
2021/07/25 04:05:27;;;;;;;9.43;5.97;;;19.80;99.40;;;18.26;100.00;100046.63;3494952;40;99974;-86
2021/07/25 04:07:55;;;;;;;12.63;6.43;;;19.80;99.60;;;18.27;100.00;100043.72;3496494;40;100210;-84
2021/07/25 04:10:23;;;;;;;7.18;5.18;;;19.70;99.70;;;18.39;100.00;100043.88;3492501;40;100575;-84
2021/07/25 04:12:50;;;;;;;7.60;5.47;;;19.80;99.70;;;18.34;100.00;100040.13;3489972;40;101461;-81
2021/07/25 04:15:17;;;;;;;6.30;4.90;;;19.80;99.80;;;18.28;100.00;100053.50;3490050;40;100488;-85
2021/07/25 04:17:44;;;;;;;10.15;5.00;;;19.80;99.80;;;18.37;100.00;100051.38;3509126;39;99743;-85
2021/07/25 04:20:12;;;;;;;8.27;4.78;;;20.00;99.80;;;18.44;100.00;100051.34;3528754;22;100247;-83
2021/07/25 04:22:39;;;;;;;6.35;4.72;;;19.90;99.70;;;18.47;100.00;100042.78;3476639;40;102940;-83
2021/07/25 04:25:09;;;;;;;6.88;5.45;;;20.00;99.70;;;18.52;100.00;100026.75;3482454;40;102078;-84
2021/07/25 04:27:40;;;;;;;7.82;5.25;;;20.00;99.60;;;18.60;100.00;100031.94;3481082;40;100044;-85
2021/07/25 04:30:08;;;;;;;7.07;5.22;;;20.10;99.50;;;18.60;100.00;100005.66;3485737;40;101093;-84
2021/07/25 04:32:36;;;;;;;9.25;5.40;;;20.20;99.30;;;18.63;100.00;99991.69;3482023;40;103116;-84
2021/07/25 04:35:03;;;;;;;11.25;5.20;;;20.20;99.20;;;18.68;100.00;99993.72;3483320;40;102426;-84
2021/07/25 04:37:31;;;;;;;9.57;5.32;;;20.30;99.10;;;18.72;100.00;99978.69;3483240;40;99923;-85
2021/07/25 04:39:59;;;;;;;6.13;5.03;;;20.30;99.00;;;18.78;100.00;99974.31;3483955;40;100075;-86
2021/07/25 04:42:30;;;;;;;8.05;6.10;;;20.30;99.00;;;18.61;100.00;99972.09;3482253;40;101205;-83
2021/07/25 04:45:06;;;;;;;7.65;4.90;;;19.50;98.70;;;18.61;100.00;99979.41;3485533;40;102247;-84
2021/07/25 04:47:39;;;;;;;8.25;4.82;;;20.40;99.10;;;18.65;100.00;99980.63;3484431;40;99953;-85
2021/07/25 04:50:13;;;;;;;6.38;4.95;;;20.40;99.00;;;18.72;100.00;99984.13;3492522;40;101919;-84
2021/07/25 04:52:43;;;;;;;6.80;5.10;;;20.40;99.00;;;18.65;100.00;99980.63;3489989;40;101271;-86
2021/07/25 04:55:13;;;;;;;11.00;5.78;;;20.40;99.00;;;18.69;100.00;99992.69;3492181;40;101609;-84
2021/07/25 04:57:43;;;;;;;8.80;4.60;;;20.40;99.00;;;18.72;100.00;99994.13;3493017;40;100003;-83
2021/07/25 05:00:14;;;;;;;8.00;5.72;;;20.50;99.00;;;18.73;100.00;100002.03;3491481;40;102696;-84
2021/07/25 05:02:43;;;;;;;8.82;4.85;;;20.50;99.00;;;18.74;100.00;100008.31;3499867;40;101209;-83
2021/07/25 05:05:12;;;;;;;7.95;5.78;;;20.50;98.90;;;18.72;100.00;100018.53;3497544;40;100791;-83
2021/07/25 05:07:41;;;;;;;5.10;3.92;;;20.50;99.10;;;18.77;100.00;100037.69;3529414;22;99997;-86
2021/07/25 05:10:11;;;;;;;8.05;5.45;;;20.60;99.20;;;18.65;100.00;100043.78;3484519;40;102049;-85
2021/07/25 05:12:49;;;;;;;8.52;5.65;;;20.50;99.40;;;18.58;100.00;100059.25;3484849;40;100545;-82
2021/07/25 05:15:24;;;;;;;9.55;5.35;;;20.60;99.50;;;18.63;100.00;100064.84;3486618;40;100389;-85
2021/07/25 05:17:59;;;;;;;9.25;5.30;;;20.60;99.60;;;18.54;100.00;100076.13;3474053;40;100822;-84
2021/07/25 05:20:36;;;;;;;7.35;4.70;;;20.60;99.90;;;18.56;100.00;100087.56;3474828;40;103329;-84
2021/07/25 05:23:15;;;;;;;9.60;6.07;;;21.60;99.90;;;18.54;100.00;100085.09;3469437;40;102901;-84
2021/07/25 05:25:50;;;;;;;9.63;6.05;;;20.60;99.90;;;18.64;100.00;100082.78;3471384;40;101204;-83
2021/07/25 05:28:20;;;;;;;8.50;5.47;;;21.60;99.90;;;18.79;100.00;100082.47;3470515;40;99921;-83
2021/07/25 05:30:53;;;;;;;9.80;5.35;;;20.60;99.90;;;18.75;100.00;100081.25;3470860;40;100233;-83
2021/07/25 05:33:20;;;;;;;8.55;6.10;;;20.60;99.90;;;18.70;100.00;100077.53;3472600;40;101194;-85
2021/07/25 05:35:48;;;;;;;8.20;5.47;;;20.60;99.90;;;18.70;100.00;100069.41;3472436;40;100293;-84
2021/07/25 05:38:16;;;;;;;8.55;5.57;;;21.00;99.90;;;18.85;100.00;100065.34;3471577;40;99968;-83
2021/07/25 05:40:43;;;;;;;7.03;4.70;;;21.00;99.90;;;18.76;100.00;100057.72;3470204;40;100042;-85
2021/07/25 05:43:11;;;;;;;6.53;5.03;;;21.60;99.90;;;18.83;100.00;100050.34;3466742;40;102716;-85
2021/07/25 05:45:39;;;;;;;7.28;5.72;;;20.90;99.90;;;18.81;100.00;100053.28;3485988;40;100054;-84
2021/07/25 05:48:07;;;;;;;12.85;6.15;;;20.90;99.80;;;18.93;100.00;100059.66;3480483;40;101131;-84
2021/07/25 05:50:35;;;;;;;9.27;6.53;;;21.80;99.90;;;19.13;100.00;100054.13;3483911;40;100940;-85
2021/07/25 05:53:04;;;;;;;6.80;5.45;;;21.00;99.80;;;19.08;100.00;100056.66;3493646;40;100226;-86
2021/07/25 05:55:33;;;;;;;7.28;5.65;;;21.10;99.80;;;19.26;100.00;100054.03;3483143;40;100180;-85
2021/07/25 05:58:02;;;;;;;7.53;5.15;;;21.10;99.60;;;19.59;100.00;100029.38;3480332;40;100365;-86
2021/07/25 06:00:29;;;;;;;6.95;5.22;;;21.40;99.50;;;19.60;100.00;100009.31;3486749;40;102523;-86
2021/07/25 06:02:58;;;;;;;10.20;6.47;;;22.40;99.90;;;19.55;100.00;100001.00;3481662;40;101427;-86
2021/07/25 06:05:28;;;;;;;12.70;5.78;;;21.50;99.20;;;19.76;100.00;100012.50;3480466;40;102892;-83
2021/07/25 06:07:56;;;;;;;6.57;5.93;;;21.50;99.10;;;19.77;100.00;99995.16;3482817;40;100222;-85
2021/07/25 06:10:27;;;;;;;8.48;5.45;;;21.50;98.80;;;19.89;100.00;99999.63;3480427;40;102101;-85
2021/07/25 06:12:56;;;;;;;7.50;5.55;;;21.90;98.90;;;20.48;100.00;99992.66;3481062;40;103357;-84
2021/07/25 06:15:24;;;;;;;7.47;4.60;;;22.00;98.80;;;20.95;100.00;99971.88;3491200;40;101277;-83
2021/07/25 06:17:51;;;;;;;7.32;5.25;;;22.20;98.70;;;21.57;100.00;99945.09;3480901;40;100057;-85
2021/07/25 06:20:19;;;;;;;6.90;4.55;;;22.90;98.50;;;21.36;100.00;99908.44;3487851;40;103285;-85
2021/07/25 06:22:50;;;;;;;8.10;5.15;;;22.80;97.90;;;21.26;100.00;99908.22;3477960;40;101379;-83
2021/07/25 06:25:20;;;;;;;7.05;4.97;;;23.40;97.10;;;21.38;100.00;99914.47;3478761;40;100407;-83
2021/07/25 06:27:48;;;;;;;10.07;5.15;;;23.50;96.50;;;21.68;100.00;99900.69;3489854;40;99986;-85
2021/07/25 06:30:15;;;;;;;8.98;5.85;;;23.80;95.60;;;22.10;100.00;99885.00;3487556;40;101381;-85
2021/07/25 06:33:02;;;;;;;6.53;5.05;;;24.00;95.20;;;22.06;100.00;99853.00;3474871;40;100997;-84
2021/07/25 06:35:31;;;;;;;4.40;4.00;;;24.70;94.80;;;21.84;100.00;99852.84;3475089;40;102444;-83
2021/07/25 06:38:03;;;;;;;6.25;4.90;;;25.10;93.10;;;21.90;100.00;99861.91;3481674;40;100400;-83
2021/07/25 06:40:31;;;;;;;5.68;4.40;;;25.20;91.70;;;22.17;100.00;99849.41;3472066;40;101552;-83
2021/07/25 06:43:00;;;;;;;6.93;4.82;;;25.30;91.30;;;22.27;100.00;99835.13;3478375;40;101293;-82
2021/07/25 06:45:29;;;;;;;5.53;4.10;;;25.00;90.90;;;22.21;100.00;99832.31;3474715;40;100776;-83
2021/07/25 06:47:57;;;;;;;6.55;4.72;;;25.00;90.40;;;22.05;100.00;99840.44;3470461;40;99977;-84
2021/07/25 06:50:25;;;;;;;6.28;4.07;;;25.90;90.00;;;;;;3474658;40;101800;-83
2021/07/25 06:52:54;;;;;;;6.43;4.10;;;25.80;89.30;;;22.93;100.00;99845.28;3478943;40;101262;-83
2021/07/25 06:55:27;;;;;;;6.00;4.90;;;26.00;89.30;;;23.40;100.00;99762.94;3476228;40;100429;-84
2021/07/25 06:57:55;;;;;;;5.82;4.43;;;25.70;87.00;;;23.29;100.00;99751.91;3473070;40;100190;-86
2021/07/25 07:00:22;;;;;;;7.45;4.13;;;25.60;85.10;;;23.26;100.00;99766.06;3474451;40;101754;-84
2021/07/25 07:02:51;;;;;;;8.40;5.13;;;25.60;83.50;;;23.32;100.00;99774.31;3477230;40;103125;-83
2021/07/25 07:05:21;;;;;;;6.93;5.00;;;25.70;82.70;;;23.24;100.00;99776.41;3476760;40;101413;-85
2021/07/25 07:07:50;;;;;;;4.88;4.20;;;25.80;81.80;;;23.54;100.00;99786.91;3486286;40;100333;-84
2021/07/25 07:10:20;;;;;;;6.07;4.38;;;26.00;81.60;;;23.56;100.00;99771.09;3483684;40;101393;-83
2021/07/25 07:12:50;;;;;;;6.90;3.80;;;26.00;80.30;;;23.60;100.00;99755.88;3478665;40;101604;-85
2021/07/25 07:15:19;;;;;;;5.97;4.45;;;26.10;79.50;;;24.40;100.00;99745.97;3479214;40;100994;-84
2021/07/25 07:17:49;;;;;;;7.68;4.22;;;26.60;79.70;;;24.15;100.00;99745.75;3480452;40;101271;-84
2021/07/25 07:20:16;;;;;;;6.95;4.25;;;26.80;78.40;;;24.14;100.00;99742.19;3475930;40;101554;-84
2021/07/25 07:22:51;;;;;;;6.03;3.95;;;26.50;77.20;;;23.30;100.00;99741.81;3480791;40;102934;-85
2021/07/25 07:25:19;;;;;;;12.32;6.25;;;26.70;74.30;;;23.93;100.00;99729.41;3476405;40;100715;-83
2021/07/25 07:27:46;;;;;;;7.10;4.38;;;26.90;74.20;;;23.23;100.00;99742.03;3479752;40;100907;-83
2021/07/25 07:30:16;;;;;;;9.02;5.30;;;27.10;72.40;;;23.53;100.00;99749.75;3476797;40;100837;-83
2021/07/25 07:32:43;;;;;;;16.10;12.50;;;27.20;71.80;;;23.86;100.00;99745.22;3471917;40;100851;-85
2021/07/25 07:35:10;;;;;;;4.75;4.22;;;27.40;71.30;;;23.82;100.00;99723.03;3477246;40;101054;-84
2021/07/25 07:37:37;;;;;;;6.38;4.70;;;27.60;70.80;;;24.41;100.00;99717.56;3485557;40;100335;-85
2021/07/25 07:40:06;;;;;;;6.10;3.92;;;27.80;70.40;;;23.90;100.00;99714.38;3474480;40;102671;-83
2021/07/25 07:42:33;;;;;;;6.00;3.83;;;28.10;67.80;;;23.87;100.00;99722.25;3473748;40;103466;-82
2021/07/25 07:45:01;;;;;;;5.57;3.72;;;28.20;66.40;;;25.15;100.00;99711.16;3479290;40;100580;-85
2021/07/25 07:47:29;;;;;;;5.38;4.45;;;28.40;66.90;;;24.93;100.00;99708.59;3475883;40;100416;-83
2021/07/25 07:49:56;;;;;;;4.82;3.58;;;28.60;66.50;;;24.29;100.00;99712.28;3475247;40;101313;-83
2021/07/25 07:52:23;;;;;;;4.95;3.75;;;28.80;64.90;;;25.76;100.00;99710.28;3476005;40;100937;-83
2021/07/25 07:54:50;;;;;;;6.68;3.60;;;29.10;64.80;;;24.93;100.00;99720.38;3473971;40;102467;-85
2021/07/25 07:57:18;;;;;;;5.60;4.13;;;29.40;63.00;;;25.36;100.00;99710.97;3479139;40;100296;-85
2021/07/25 07:59:45;;;;;;;8.02;5.15;;;29.60;62.00;;;25.27;100.00;99718.06;3476227;40;101293;-85
2021/07/25 08:02:12;;;;;;;6.07;4.55;;;29.70;60.60;;;24.85;100.00;99725.50;3471962;40;101293;-84
2021/07/25 08:04:40;;;;;;;5.68;4.35;;;29.70;59.80;;;24.75;100.00;99714.47;3472224;40;102248;-84
2021/07/25 08:07:07;;;;;;;5.15;4.25;;;29.80;59.20;;;25.05;100.00;99709.22;3471223;40;100216;-84
2021/07/25 08:09:34;;;;;;;6.63;4.55;;;29.90;59.30;;;24.96;100.00;99719.03;3469829;40;101019;-82
2021/07/25 08:12:06;;;;;;;6.07;3.90;;;30.00;58.60;;;24.56;100.00;99719.56;3470753;40;103226;-82
2021/07/25 08:14:33;;;;;;;5.18;4.22;;;30.00;58.20;;;24.96;100.00;99716.28;3487373;39;101516;-84
2021/07/25 08:17:01;;;;;;;6.13;4.30;;;30.20;58.10;;;25.00;100.00;99720.94;3476884;40;100396;-83
2021/07/25 08:19:28;;;;;;;5.93;4.32;;;30.00;58.00;;;24.82;100.00;99717.81;3469580;40;100763;-84
2021/07/25 08:21:57;;;;;;;7.50;4.82;;;29.90;57.50;;;26.18;100.00;99702.91;3469578;40;101715;-83
2021/07/25 08:24:24;;;;;;;9.75;4.43;;;29.80;57.60;;;27.31;100.00;99694.19;3471449;40;100923;-84
2021/07/25 08:26:51;;;;;;;6.28;3.65;;;30.20;58.10;;;26.85;100.00;99697.06;3471396;40;100341;-83
2021/07/25 08:29:23;;;;;;;6.07;4.15;;;30.50;58.00;;;25.76;100.00;99704.81;3477633;40;101039;-81
2021/07/25 08:31:50;;;;;;;7.47;4.10;;;30.80;56.90;;;25.32;100.00;99715.34;3469858;40;103599;-83
2021/07/25 08:34:17;;;;;;;6.13;4.28;;;30.90;55.40;;;24.86;100.00;99711.53;3468257;40;100763;-82
2021/07/25 08:36:45;;;;;;;6.20;4.75;;;31.00;54.30;;;24.81;100.00;99718.91;3469858;40;100220;-85
2021/07/25 08:39:14;;;;;;;6.50;3.95;;;31.10;53.90;;;24.43;100.00;99720.84;3469947;40;101466;-83
2021/07/25 08:42:05;;;;;;;6.30;4.50;;;31.10;53.10;;;25.82;100.00;99715.78;3467872;40;101115;-84
2021/07/25 08:44:47;;;;;;;6.35;4.25;;;30.80;53.60;;;26.44;100.00;99701.84;3474494;40;100539;-83
2021/07/25 08:47:24;;;;;;;6.80;5.20;;;30.80;54.30;;;26.09;100.00;99697.97;3472006;40;100311;-82
2021/07/25 08:49:57;;;;;;;6.32;4.05;;;30.80;54.30;;;25.47;100.00;99702.81;3471299;40;100967;-83
2021/07/25 08:52:26;;;;;;;8.20;4.00;;;30.90;53.60;;;25.93;100.00;99693.59;3468051;40;102917;-83
2021/07/25 08:54:57;;;;;;;23.00;15.68;;;30.90;53.70;;;26.86;100.00;99681.41;3473520;40;100479;-83
2021/07/25 08:57:30;;;;;;;20.45;12.75;;;31.10;53.90;;;26.81;100.00;99676.78;3481976;40;99942;-82
2021/07/25 08:59:59;;;;;;;6.32;4.85;;;31.30;53.90;;;26.51;100.00;99677.66;3476655;40;102101;-81
2021/07/25 09:02:30;;;;;;;8.50;4.18;;;31.50;53.40;;;26.53;100.00;99678.22;3468771;40;100974;-84
2021/07/25 09:05:00;;;;;;;7.05;4.57;;;31.70;52.90;;;26.01;100.00;99676.59;3470212;40;100546;-82
2021/07/25 09:07:29;;;;;;;6.03;4.30;;;32.00;51.90;;;25.91;100.00;99684.81;3464572;40;100493;-83
2021/07/25 09:10:01;;;;;;;6.22;3.95;;;32.00;51.60;;;25.77;100.00;99681.78;3469756;40;101519;-83
2021/07/25 09:12:30;;;;;;;4.57;3.55;;;32.00;51.20;;;26.60;100.00;99670.50;3469349;40;101435;-82
2021/07/25 09:15:01;;;;;;;6.85;4.03;;;32.00;51.30;;;27.57;100.00;99670.97;3467788;40;100878;-82
2021/07/25 09:17:29;;;;;;;9.25;3.67;;;32.10;50.90;;;28.05;100.00;99672.00;3469483;40;100309;-83
2021/07/25 09:20:28;;;;;;;5.97;3.60;;;32.10;50.60;;;26.44;100.00;99672.50;3469392;40;100906;-82
2021/07/25 09:23:15;;;;;;;6.28;4.07;;;32.20;50.60;;;27.93;100.00;99676.22;3468438;40;103209;-83
2021/07/25 09:25:48;;;;;;;8.02;3.85;;;32.40;50.70;;;27.51;100.00;99683.06;3466911;40;100569;-84
2021/07/25 09:28:29;;;;;;;5.25;3.63;;;32.50;50.60;;;27.16;100.00;99675.84;3464330;40;100396;-83
2021/07/25 09:30:57;;;;;;;5.70;3.30;;;32.80;49.20;;;26.60;100.00;99675.19;3466159;40;102858;-83
2021/07/25 09:33:34;;;;;;;9.02;3.92;;;32.80;48.40;;;27.69;100.00;99670.63;3466760;40;101111;-83
2021/07/25 09:36:15;;;;;;;7.20;3.88;;;32.70;48.60;;;27.75;100.00;99663.97;3464713;40;102619;-83
2021/07/25 09:38:45;;;;;;;7.47;4.38;;;32.70;48.80;;;27.50;100.00;99667.69;3466046;40;100318;-82
2021/07/25 09:41:24;;;;;;;6.00;3.88;;;32.80;49.10;;;27.56;100.00;99663.84;3465824;40;102628;-83
2021/07/25 09:44:09;;;;;;;4.60;3.15;;;32.80;48.50;;;27.10;100.00;99675.03;3495174;40;102666;-84
2021/07/25 09:46:45;;;;;;;5.00;3.00;;;32.80;48.80;;;26.99;100.00;99667.94;3475122;40;100386;-84
2021/07/25 09:49:13;;;;;;;4.55;3.35;;;32.90;48.80;;;27.77;100.00;99656.28;3464910;40;100040;-83
2021/07/25 09:51:41;;;;;;;4.35;3.38;;;32.90;48.30;;;27.55;100.00;99662.19;3465805;40;101229;-83
2021/07/25 09:54:08;;;;;;;4.10;2.92;;;33.00;48.10;;;26.56;100.00;99660.38;3468469;40;101278;-82
2021/07/25 09:56:36;;;;;;;4.45;3.70;;;33.10;47.10;;;27.26;100.00;99659.31;3467409;40;101060;-82
2021/07/25 09:59:03;;;;;;;5.13;4.22;;;33.10;47.00;;;28.47;100.00;99649.34;3468705;40;100040;-84
2021/07/25 10:01:39;;;;;;;4.30;3.42;;;33.30;47.50;;;27.80;100.00;99651.03;3468635;40;101182;-84
2021/07/25 10:04:15;;;;;;;8.68;4.05;;;33.30;47.30;;;27.12;100.00;99658.28;3467640;40;101154;-80
2021/07/25 10:06:43;;;;;;;4.65;3.22;;;33.30;46.40;;;27.75;100.00;99647.50;3467909;40;100540;-82
2021/07/25 10:09:12;;;;;;;8.80;3.47;;;33.30;46.50;;;28.73;100.00;99638.88;3467870;40;100273;-81
2021/07/25 10:11:48;;;;;;;6.47;4.10;;;33.30;46.90;;;29.08;100.00;99645.88;3466569;40;101208;-83
2021/07/25 10:14:19;;;;;;;4.03;3.63;;;33.50;46.80;;;28.54;100.00;99646.25;3466518;40;101148;-81